Terminal Aerodrome Forecast
Issued by NWS

Home | Current Version | Previous Version | Text Only | Print | Product List | Glossary On
Versions: 1 2 3 4 5 6 7 8 9 10 11 12 13 14 15 16 17 18 19 20 21 22 23 24
000
FTUS43 KDMX 211826 AAA
TAFMCW
TAF AMD
KMCW 211826Z 2118/2218 18015KT P6SM SCT015
      TEMPO 2118/2121 OVC030
     FM212200 16010KT P6SM BKN035
     FM220200 16013KT P6SM SCT040
     FM221000 17011KT P6SM BKN011 BKN100
     FM221400 17012G22KT P6SM BKN120=

USA.gov is the U.S. government's official web portal to all federal, state and local government web resources and services.